Wetterdaten der Wetterstation 22117 Öjendorf (Hamburg)

Letzte Wetterlage 29.03.2015 15:06
Wetterdiagramm
Tabellarische Darstellung
Datum Temperatur Windchill Feuchte Luftdruck Windrichtung Windstärke Niederschlag
29.03.2015 15:26 8,5 °C 8,5 °C 84 % 993,5 hPa 4,6 l/m²
29.03.2015 15:06 8,5 °C 8,5 °C 84 % 993,9 hPa 4,5 l/m²
29.03.2015 14:56 8,5 °C 8,5 °C 84 % 994,0 hPa 4,5 l/m²
29.03.2015 14:46 8,5 °C 8,5 °C 84 % 994,4 hPa 4,4 l/m²
29.03.2015 14:36 8,6 °C 8,6 °C 83 % 994,6 hPa 4,3 l/m²
29.03.2015 14:06 9,7 °C 9,7 °C 75 % 994,8 hPa 3,8 l/m²
29.03.2015 13:56 10,1 °C 10,1 °C 80 % 994,8 hPa 3,8 l/m²
29.03.2015 13:46 10,2 °C 10,2 °C 80 % 994,9 hPa 3,8 l/m²
29.03.2015 13:36 10,2 °C 10,2 °C 80 % 995,2 hPa 3,8 l/m²
29.03.2015 13:26 10,2 °C 10,2 °C 80 % 995,4 hPa 3,8 l/m²
29.03.2015 13:06 10,1 °C 10,1 °C 80 % 995,6 hPa 3,8 l/m²
29.03.2015 12:56 9,8 °C 9,8 °C 84 % 995,8 hPa 3,8 l/m²
29.03.2015 12:46 9,4 °C 9,4 °C 84 % 996,2 hPa 3,8 l/m²
29.03.2015 12:36 9,1 °C 9,1 °C 84 % 996,4 hPa 3,8 l/m²
29.03.2015 12:26 9,0 °C 9,0 °C 84 % 996,5 hPa 3,8 l/m²
29.03.2015 12:16 8,9 °C 8,9 °C 83 % 996,8 hPa 3,8 l/m²
29.03.2015 12:06 9,7 °C 9,7 °C 82 % 996,9 hPa 3,8 l/m²
29.03.2015 11:56 10,2 °C 10,2 °C 82 % 996,5 hPa 3,5 l/m²
29.03.2015 11:46 10,3 °C 10,3 °C 82 % 996,5 hPa 3,5 l/m²
29.03.2015 11:36 10,1 °C 10,1 °C 83 % 996,7 hPa 3,5 l/m²
29.03.2015 11:26 9,6 °C 9,6 °C 86 % 996,8 hPa 3,5 l/m²
29.03.2015 11:16 9,6 °C 9,6 °C 86 % 997,0 hPa 3,4 l/m²
29.03.2015 11:06 9,6 °C 9,6 °C 87 % 997,0 hPa 3,4 l/m²
29.03.2015 10:56 9,4 °C 9,4 °C 87 % 997,0 hPa 3,4 l/m²
29.03.2015 10:46 9,3 °C 9,3 °C 87 % 997,2 hPa 3,4 l/m²
Neue Wetterwarnung

Neue Niederschlagsmeldung
Neue Meldung
Regen Liveticker
    sehr starker Regen/Gewitter
    starker Regen/Gewitter
    mäßiger bis starker Regen
    mäßiger Regen
    leichter bis mäßiger Regen
    kein Regen